Accueil
METAR-TAF:

METAR-TAF

Aéroports :

Sarzana, Italie

Luni

latitude: 44-05N, longitude: 009-59E, altitude: 9 m

Observation

Le bulletin a été fait il y a 4 heures et 22 minutes, à 14:55 UTC
Vent 11 kt de sud avec des rafales jusqu'à 22 kt, variant entre est/sud-est et ouest
Température 13°C
Humidité 94%
Pression 999 hPa
Visibilité: 3000 m
Nuages épars à une hauteur de 1500 ft
Nuages épars à une hauteur de 2000 ft
pluie, brume

METAR: LIQW 111455Z 18011G22KT 120V270 3000 RA BR SCT015 SCT020 13/12 Q0999 RMK OVC VIS MIN 3000 WIND THR18 17009KT YLO

Heure: 20:17 (19:17 UTC)


TAF: absent

Observations et prévisions météorologiques de plus de 4000 aéroports (messages METAR et TAF).

Les stations disponibles sont représentées par des disques jaunes et rouges sur la carte.

Passer la souris dessus pour voir le nom de la station.

Cliquer dessus pour voir les observations et prévisions météorologiques.

Pour changer de carte: cliquez sur les boutons verts avec une croix noire pour zoomer, sur le bouton vert avec un tiret pour effectuer un zoom arrière, ou sur les flèches vertes pour les cartes adjacentes.


METAR-TAF: